createdAt,value
2019-05-13T00:00:34.191Z,73.43
2019-05-13T00:03:03.683Z,73.70
2019-05-13T00:05:33.831Z,73.82
2019-05-13T00:08:03.433Z,73.48
2019-05-13T00:10:34.982Z,72.88
2019-05-13T00:13:04.378Z,72.51
2019-05-13T00:15:33.943Z,72.63
2019-05-13T00:18:03.862Z,73.00
2019-05-13T00:20:33.781Z,73.13
2019-05-13T00:23:03.858Z,72.99
2019-05-13T00:25:33.819Z,72.82
2019-05-13T00:30:44.254Z,73.16
2019-05-13T00:33:13.791Z,73.00
2019-05-13T00:35:44.008Z,73.29
2019-05-13T00:38:13.889Z,73.60
2019-05-13T00:40:44.099Z,73.03
2019-05-13T00:43:14.058Z,72.96
2019-05-13T00:45:44.180Z,72.88
2019-05-13T00:48:14.094Z,73.04
2019-05-13T00:50:44.052Z,73.27
2019-05-13T00:53:13.373Z,73.14
2019-05-13T00:55:41.494Z,73.40
2019-05-13T01:00:51.121Z,73.79
2019-05-13T01:03:21.059Z,73.95
2019-05-13T01:05:50.982Z,74.03
2019-05-13T01:08:20.915Z,73.88
2019-05-13T01:10:50.859Z,73.54
2019-05-13T01:13:20.790Z,73.48
2019-05-13T01:15:50.772Z,73.32
2019-05-13T01:18:23.287Z,73.45
2019-05-13T01:20:50.942Z,73.42
2019-05-13T01:23:20.858Z,73.23
2019-05-13T01:25:51.145Z,73.33
2019-05-13T01:31:00.389Z,74.22
2019-05-13T01:33:30.329Z,73.81
2019-05-13T01:36:00.269Z,73.60
2019-05-13T01:38:30.585Z,73.89
2019-05-13T01:41:00.553Z,73.87
2019-05-13T01:46:10.208Z,73.88
2019-05-13T01:48:40.138Z,74.17
2019-05-13T01:51:10.073Z,73.80
2019-05-13T01:53:40.264Z,74.74
2019-05-13T01:56:10.205Z,74.10
2019-05-13T02:01:19.831Z,73.76
2019-05-13T02:03:50.047Z,73.31
2019-05-13T02:06:19.981Z,73.32
2019-05-13T02:11:29.419Z,74.24
2019-05-13T02:13:59.168Z,74.05
2019-05-13T02:16:29.113Z,73.63
2019-05-13T02:18:59.022Z,73.36
2019-05-13T02:21:29.266Z,73.97
2019-05-13T02:23:59.195Z,74.15
2019-05-13T02:29:08.472Z,74.55
2019-05-13T02:31:46.570Z,74.61
2019-05-13T02:34:08.348Z,74.28
2019-05-13T02:36:38.285Z,74.28
2019-05-13T02:41:47.558Z,74.42
2019-05-13T02:44:17.949Z,74.42
2019-05-13T02:46:48.071Z,74.30
2019-05-13T02:49:18.282Z,75.19
2019-05-13T02:51:48.238Z,74.95
2019-05-13T02:54:18.525Z,74.58
2019-05-13T02:56:48.476Z,74.62
2019-05-13T03:01:57.721Z,73.94
2019-05-13T03:04:27.651Z,74.21
2019-05-13T03:06:57.932Z,73.86
2019-05-13T03:09:27.856Z,73.82
2019-05-13T03:11:58.155Z,74.77
2019-05-13T03:14:28.079Z,75.76
2019-05-13T03:16:58.004Z,75.76
2019-05-13T03:19:27.924Z,75.46
2019-05-13T03:21:57.878Z,75.75
2019-05-13T03:24:27.785Z,75.57
2019-05-13T03:26:57.733Z,75.37
2019-05-13T03:29:27.710Z,75.74
2019-05-13T03:31:57.626Z,75.36
2019-05-13T03:34:27.901Z,74.86
2019-05-13T03:36:58.231Z,74.75
2019-05-13T03:39:27.707Z,74.63
2019-05-13T03:41:57.655Z,74.89
2019-05-13T03:44:27.941Z,75.12
2019-05-13T03:46:57.874Z,74.88
2019-05-13T03:49:27.803Z,74.80
2019-05-13T03:51:57.730Z,74.53
2019-05-13T03:54:27.677Z,74.51
2019-05-13T03:56:57.611Z,74.69
2019-05-13T03:59:27.535Z,74.26
2019-05-13T04:01:57.470Z,74.40
2019-05-13T04:04:27.505Z,74.68
2019-05-13T04:06:57.430Z,74.42
2019-05-13T04:09:34.839Z,74.32
2019-05-13T04:11:57.306Z,74.32
2019-05-13T04:14:27.219Z,74.72
2019-05-13T04:16:57.152Z,75.07
2019-05-13T04:19:27.082Z,74.88
2019-05-13T04:21:57.024Z,74.84
2019-05-13T04:24:27.252Z,74.64
2019-05-13T04:26:57.198Z,74.64
2019-05-13T04:29:27.134Z,74.98
2019-05-13T04:34:36.727Z,75.36
2019-05-13T04:37:06.956Z,74.70
2019-05-13T04:39:47.729Z,74.15
2019-05-13T04:42:07.092Z,74.15
2019-05-13T04:44:37.032Z,74.07
2019-05-13T04:47:06.958Z,74.07
2019-05-13T04:49:36.895Z,74.83
2019-05-13T04:52:06.823Z,74.05
2019-05-13T04:54:36.755Z,74.56
2019-05-13T04:57:06.681Z,73.49
2019-05-13T04:59:40.370Z,73.57
2019-05-13T05:02:36.545Z,73.11
2019-05-13T05:07:57.314Z,70.85
2019-05-13T05:13:36.293Z,70.87
2019-05-13T05:19:23.691Z,70.43
2019-05-13T05:27:58.486Z,68.82
2019-05-13T05:30:48.916Z,67.49
2019-05-13T05:33:42.756Z,66.23
2019-05-13T05:36:43.575Z,66.39
2019-05-13T05:42:02.177Z,65.61
2019-05-13T05:44:32.406Z,66.46
2019-05-13T05:47:02.601Z,65.87
2019-05-13T05:49:32.017Z,66.10
2019-05-13T05:52:01.740Z,65.87
2019-05-13T05:57:12.157Z,65.94
2019-05-13T05:59:42.537Z,67.14
2019-05-13T06:02:12.109Z,65.54
2019-05-13T06:04:43.091Z,65.55
2019-05-13T06:07:11.592Z,64.12
2019-05-13T06:09:42.205Z,64.92
2019-05-13T06:12:11.997Z,63.86
2019-05-13T06:14:42.126Z,63.48
2019-05-13T06:17:11.517Z,64.05
2019-05-13T06:19:41.906Z,61.94
2019-05-13T06:22:12.108Z,62.99
2019-05-13T06:24:42.078Z,63.25
2019-05-13T06:27:11.863Z,62.28
2019-05-13T06:29:42.324Z,61.43
2019-05-13T06:32:19.003Z,61.65
2019-05-13T06:34:41.512Z,61.45
2019-05-13T06:37:11.427Z,60.67
2019-05-13T06:39:41.382Z,59.38
2019-05-13T06:42:11.683Z,59.40
2019-05-13T06:44:41.471Z,60.83
2019-05-13T06:47:11.419Z,62.00
2019-05-13T06:49:42.604Z,60.69
2019-05-13T06:52:11.816Z,62.84
2019-05-13T06:54:41.841Z,60.88
2019-05-13T06:57:13.125Z,60.40
2019-05-13T06:59:41.853Z,58.59
2019-05-13T07:02:09.433Z,59.90
2019-05-13T07:04:41.428Z,60.20
2019-05-13T07:07:14.073Z,57.97
2019-05-13T07:09:42.455Z,59.92
2019-05-13T07:12:11.356Z,58.03
2019-05-13T07:14:41.355Z,56.29
2019-05-13T07:17:09.403Z,56.79
2019-05-13T07:19:41.413Z,57.30
2019-05-13T07:22:11.470Z,58.29
2019-05-13T07:24:41.449Z,58.37
2019-05-13T07:27:09.134Z,58.72
2019-05-13T07:29:39.071Z,56.87
2019-05-13T07:32:09.005Z,57.60
2019-05-13T07:34:38.945Z,57.91
2019-05-13T07:37:11.200Z,56.53
2019-05-13T07:39:38.849Z,58.01
2019-05-13T07:42:08.777Z,58.16
2019-05-13T07:44:38.707Z,53.95
2019-05-13T07:47:08.675Z,54.52
2019-05-13T07:49:38.601Z,55.61
2019-05-13T07:52:08.560Z,56.19
2019-05-13T07:54:38.480Z,56.17
2019-05-13T07:57:08.426Z,55.10
2019-05-13T07:59:38.347Z,54.86
2019-05-13T08:02:08.290Z,54.02
2019-05-13T08:04:38.214Z,53.17
2019-05-13T08:07:08.160Z,54.14
2019-05-13T08:09:38.085Z,52.09
2019-05-13T08:12:11.046Z,53.03
2019-05-13T08:14:37.954Z,53.82
2019-05-13T08:17:08.212Z,55.12
2019-05-13T08:19:38.134Z,53.82
2019-05-13T08:22:08.076Z,54.73
2019-05-13T08:24:38.105Z,54.29
2019-05-13T08:27:08.047Z,54.50
2019-05-13T08:29:37.998Z,55.77
2019-05-13T08:32:07.932Z,53.05
2019-05-13T08:34:38.141Z,53.16
2019-05-13T08:37:08.073Z,53.13
2019-05-13T08:39:38.691Z,52.60
2019-05-13T08:42:16.100Z,52.37
2019-05-13T08:44:38.175Z,51.10
2019-05-13T08:47:08.125Z,51.01
2019-05-13T08:49:38.054Z,50.06
2019-05-13T08:52:08.012Z,51.80
2019-05-13T08:54:38.239Z,52.69
2019-05-13T08:57:08.186Z,49.75
2019-05-13T09:02:17.817Z,49.50
2019-05-13T09:04:47.775Z,50.63
2019-05-13T09:07:21.127Z,49.80
2019-05-13T09:09:47.609Z,46.18
2019-05-13T09:12:29.496Z,47.39
2019-05-13T09:14:47.490Z,48.33
2019-05-13T09:17:17.426Z,48.77
2019-05-13T09:19:47.350Z,46.89
2019-05-13T09:22:17.294Z,45.89
2019-05-13T09:24:47.217Z,43.15
2019-05-13T09:27:17.774Z,41.53
2019-05-13T09:29:47.690Z,44.95
2019-05-13T09:32:17.626Z,42.64
2019-05-13T09:34:47.561Z,43.50
2019-05-13T09:37:17.502Z,42.40
2019-05-13T09:39:47.424Z,40.74
2019-05-13T09:42:17.382Z,40.86
2019-05-13T09:47:28.452Z,41.66
2019-05-13T09:49:56.622Z,44.13
2019-05-13T09:52:26.563Z,42.40
2019-05-13T09:54:56.836Z,42.67
2019-05-13T09:57:26.793Z,41.28
2019-05-13T09:59:56.724Z,41.12
2019-05-13T10:02:26.658Z,42.66
2019-05-13T10:07:36.237Z,44.91
2019-05-13T10:10:11.687Z,43.70
2019-05-13T10:12:39.074Z,41.75
2019-05-13T10:15:09.007Z,37.20
2019-05-13T10:17:42.454Z,38.40
2019-05-13T10:20:08.904Z,38.20
2019-05-13T10:22:41.153Z,36.03
2019-05-13T10:25:09.106Z,39.79
2019-05-13T10:30:18.662Z,32.61
2019-05-13T10:32:48.607Z,34.73
2019-05-13T10:35:18.577Z,36.06
2019-05-13T10:40:27.813Z,38.85
2019-05-13T10:42:57.779Z,34.52
2019-05-13T10:45:27.976Z,36.32
2019-05-13T10:47:58.192Z,37.19
2019-05-13T10:50:28.147Z,35.26
2019-05-13T10:52:58.096Z,36.67
2019-05-13T10:55:28.027Z,35.88
2019-05-13T10:57:57.975Z,35.05
2019-05-13T11:00:42.791Z,35.96
2019-05-13T11:03:12.739Z,33.61
2019-05-13T11:05:44.777Z,33.11
2019-05-13T11:08:13.189Z,32.57
2019-05-13T11:10:43.127Z,31.71
2019-05-13T11:13:13.075Z,31.93
2019-05-13T11:15:46.109Z,32.74
2019-05-13T11:18:19.110Z,32.19
2019-05-13T11:20:42.881Z,30.62
2019-05-13T11:23:12.854Z,30.62
2019-05-13T11:25:42.791Z,31.50
2019-05-13T11:28:12.730Z,30.13
2019-05-13T11:30:42.728Z,30.29
2019-05-13T11:33:12.673Z,31.06
2019-05-13T11:35:42.922Z,32.46
2019-05-13T11:38:12.882Z,30.10
2019-05-13T11:40:43.168Z,30.84
2019-05-13T11:43:13.412Z,31.54
2019-05-13T11:45:43.715Z,31.54
2019-05-13T11:48:13.934Z,30.72
2019-05-13T11:50:50.074Z,30.94
2019-05-13T11:53:31.529Z,28.67
2019-05-13T11:55:43.779Z,27.87
2019-05-13T11:58:14.280Z,30.23
2019-05-13T12:00:56.202Z,29.26
2019-05-13T12:03:26.148Z,28.39
2019-05-13T12:05:56.076Z,31.77
2019-05-13T12:08:26.358Z,30.90
2019-05-13T12:10:56.284Z,32.61
2019-05-13T12:13:26.577Z,28.27
2019-05-13T12:15:56.512Z,30.83
2019-05-13T12:21:05.779Z,27.14
2019-05-13T12:23:35.724Z,29.01
2019-05-13T12:26:05.683Z,28.90
2019-05-13T12:28:35.909Z,30.42
2019-05-13T12:31:05.836Z,30.33
2019-05-13T12:33:35.777Z,28.03
2019-05-13T12:36:05.714Z,28.46
2019-05-13T12:38:35.945Z,29.43
2019-05-13T12:41:05.888Z,27.82
2019-05-13T12:43:35.815Z,30.14
2019-05-13T12:46:06.093Z,29.66
2019-05-13T12:48:36.383Z,29.55
2019-05-13T12:51:06.302Z,30.17
2019-05-13T12:53:36.221Z,28.35
2019-05-13T12:56:06.209Z,28.03
2019-05-13T12:58:36.087Z,28.15
2019-05-13T13:01:06.047Z,29.42
2019-05-13T13:03:35.991Z,29.48
2019-05-13T13:06:30.010Z,29.77
2019-05-13T13:08:43.751Z,29.74
2019-05-13T13:11:05.940Z,32.13
2019-05-13T13:13:56.783Z,28.04
2019-05-13T13:16:05.680Z,29.78
2019-05-13T13:18:35.651Z,29.41
2019-05-13T13:21:07.891Z,29.62
2019-05-13T13:23:35.511Z,30.12
2019-05-13T13:26:13.898Z,29.84
2019-05-13T13:28:35.374Z,30.23
2019-05-13T13:31:05.310Z,31.39
2019-05-13T13:33:35.239Z,30.51
2019-05-13T13:36:06.194Z,31.46
2019-05-13T13:38:35.426Z,32.05
2019-05-13T13:41:05.366Z,32.71
2019-05-13T13:43:37.177Z,31.25
2019-05-13T13:46:17.152Z,30.72
2019-05-13T13:48:35.495Z,30.76
2019-05-13T13:51:05.528Z,31.30
2019-05-13T13:53:35.372Z,32.48
2019-05-13T13:56:05.575Z,30.12
2019-05-13T13:58:35.502Z,31.42
2019-05-13T14:01:12.499Z,32.39
2019-05-13T14:03:35.400Z,32.84
2019-05-13T14:06:06.494Z,32.49
2019-05-13T14:08:35.617Z,31.83
2019-05-13T14:11:05.554Z,32.46
2019-05-13T14:13:35.935Z,33.51
2019-05-13T14:16:20.590Z,33.22
2019-05-13T14:18:35.789Z,31.05
2019-05-13T14:21:05.699Z,33.61
2019-05-13T14:23:37.866Z,33.39
2019-05-13T14:26:05.570Z,33.87
2019-05-13T14:28:35.530Z,34.53
2019-05-13T14:31:05.727Z,35.61
2019-05-13T14:33:35.833Z,34.55
2019-05-13T14:36:05.648Z,33.82
2019-05-13T14:38:35.730Z,33.76
2019-05-13T14:41:09.000Z,33.07
2019-05-13T14:43:35.718Z,33.47
2019-05-13T14:46:05.678Z,34.60
2019-05-13T14:48:35.595Z,34.28
2019-05-13T14:53:45.505Z,34.31
2019-05-13T14:56:15.446Z,33.01
2019-05-13T14:58:45.376Z,33.16
2019-05-13T15:01:19.897Z,35.17
2019-05-13T15:03:45.238Z,35.54
2019-05-13T15:06:15.176Z,36.52
2019-05-13T15:08:45.382Z,32.99
2019-05-13T15:11:15.327Z,33.81
2019-05-13T15:13:45.255Z,34.66
2019-05-13T15:16:15.185Z,33.82
2019-05-13T15:18:45.138Z,36.22
2019-05-13T15:21:15.079Z,35.08
2019-05-13T15:23:45.027Z,38.22
2019-05-13T15:26:14.979Z,41.04
2019-05-13T15:31:24.234Z,36.35
2019-05-13T15:33:54.168Z,36.32
2019-05-13T15:36:24.114Z,36.45
2019-05-13T15:38:54.062Z,35.71
2019-05-13T15:41:23.979Z,34.86
2019-05-13T15:46:33.551Z,34.97
2019-05-13T15:49:03.491Z,35.35
2019-05-13T15:51:33.449Z,35.21
2019-05-13T15:54:03.711Z,35.87
2019-05-13T15:56:33.659Z,36.58
2019-05-13T15:59:03.934Z,36.57
2019-05-13T16:01:33.885Z,35.60
2019-05-13T16:04:03.853Z,37.86
2019-05-13T16:06:33.783Z,33.32
2019-05-13T16:11:43.887Z,32.73
2019-05-13T16:14:14.160Z,33.82
2019-05-13T16:16:44.384Z,35.41
2019-05-13T16:19:14.748Z,35.45
2019-05-13T16:21:44.686Z,35.32
2019-05-13T16:24:14.621Z,35.60
2019-05-13T16:29:23.902Z,34.86
2019-05-13T16:31:53.851Z,35.59
2019-05-13T16:34:23.842Z,35.67
2019-05-13T16:36:53.768Z,36.12
2019-05-13T16:39:23.713Z,36.13
2019-05-13T16:41:53.649Z,36.78
2019-05-13T16:44:23.576Z,36.05
2019-05-13T16:46:53.499Z,37.44
2019-05-13T16:49:23.492Z,38.68
2019-05-13T16:51:53.438Z,37.03
2019-05-13T16:54:23.384Z,36.41
2019-05-13T16:56:53.319Z,37.52
2019-05-13T17:02:03.079Z,40.11
2019-05-13T17:04:33.027Z,38.49
2019-05-13T17:07:02.951Z,39.73
2019-05-13T17:09:33.273Z,38.99
2019-05-13T17:12:03.180Z,38.20
2019-05-13T17:14:33.478Z,37.75
2019-05-13T17:17:03.418Z,40.53
2019-05-13T17:19:33.364Z,40.37
2019-05-13T17:22:03.306Z,39.76
2019-05-13T17:24:33.241Z,40.26
2019-05-13T17:27:03.224Z,40.95
2019-05-13T17:29:33.191Z,40.72
2019-05-13T17:32:03.137Z,41.27
2019-05-13T17:37:12.404Z,41.15
2019-05-13T17:39:42.355Z,40.03
2019-05-13T17:42:12.444Z,39.72
2019-05-13T17:47:21.938Z,40.42
2019-05-13T17:49:52.233Z,40.74
2019-05-13T17:52:22.229Z,41.39
2019-05-13T17:54:51.993Z,41.61
2019-05-13T17:57:21.949Z,42.08
2019-05-13T17:59:52.231Z,42.99
2019-05-13T18:02:21.794Z,42.61
2019-05-13T18:04:52.211Z,42.60
2019-05-13T18:10:01.607Z,43.53
2019-05-13T18:12:31.076Z,42.47
2019-05-13T18:15:02.465Z,42.49
2019-05-13T18:17:31.519Z,43.20
2019-05-13T18:20:02.404Z,43.84
2019-05-13T18:22:31.420Z,43.75
2019-05-13T18:27:41.574Z,43.42
2019-05-13T18:30:11.431Z,44.86
2019-05-13T18:32:40.939Z,44.31
2019-05-13T18:35:12.307Z,43.89
2019-05-13T18:37:41.972Z,43.07
2019-05-13T18:40:11.739Z,43.92
2019-05-13T18:42:42.142Z,44.89
2019-05-13T18:45:11.620Z,45.37
2019-05-13T18:47:41.239Z,45.83
2019-05-13T18:52:52.380Z,44.82
2019-05-13T18:55:20.235Z,45.88
2019-05-13T18:57:51.815Z,45.88
2019-05-13T19:00:21.672Z,46.76
2019-05-13T19:02:50.564Z,48.28
2019-05-13T19:05:21.228Z,49.94
2019-05-13T19:10:31.281Z,52.29
2019-05-13T19:13:01.735Z,52.97
2019-05-13T19:15:31.574Z,53.37
2019-05-13T19:17:59.637Z,53.87
2019-05-13T19:20:31.330Z,54.63
2019-05-13T19:23:01.117Z,55.62
2019-05-13T19:25:31.427Z,56.72
2019-05-13T19:28:02.369Z,57.06
2019-05-13T19:30:31.795Z,56.96
2019-05-13T19:35:42.438Z,57.08
2019-05-13T19:38:12.118Z,57.15
2019-05-13T19:40:41.961Z,58.41
2019-05-13T19:45:49.198Z,58.83
2019-05-13T19:48:21.610Z,58.44
2019-05-13T19:50:49.077Z,59.01
2019-05-13T19:53:19.020Z,58.22
2019-05-13T19:55:48.968Z,57.69
2019-05-13T19:58:18.919Z,57.96
2019-05-13T20:00:48.866Z,57.46
2019-05-13T20:03:18.794Z,57.94
2019-05-13T20:05:48.750Z,58.00
2019-05-13T20:08:18.668Z,57.08
2019-05-13T20:10:48.617Z,58.08
2019-05-13T20:13:18.841Z,58.03
2019-05-13T20:15:48.788Z,58.09
2019-05-13T20:20:58.053Z,59.24
2019-05-13T20:23:27.983Z,59.18
2019-05-13T20:25:57.933Z,58.50
2019-05-13T20:28:27.869Z,59.18
2019-05-13T20:30:57.812Z,58.76
2019-05-13T20:33:27.740Z,58.53
2019-05-13T20:35:57.695Z,59.53
2019-05-13T20:38:27.638Z,60.18
2019-05-13T20:40:57.910Z,60.51
2019-05-13T20:43:27.836Z,60.88
2019-05-13T20:45:57.813Z,60.45
2019-05-13T20:48:27.741Z,61.36
2019-05-13T20:50:57.679Z,61.65
2019-05-13T20:53:27.625Z,62.95
2019-05-13T20:55:57.907Z,63.32
2019-05-13T20:58:28.122Z,62.22
2019-05-13T21:00:58.073Z,62.36
2019-05-13T21:03:27.996Z,62.07
2019-05-13T21:05:57.934Z,62.61
2019-05-13T21:08:28.103Z,62.01
2019-05-13T21:10:58.097Z,61.93
2019-05-13T21:13:28.022Z,62.02
2019-05-13T21:15:58.259Z,61.78
2019-05-13T21:21:07.532Z,61.96
2019-05-13T21:23:37.482Z,62.03
2019-05-13T21:26:07.714Z,62.14
2019-05-13T21:28:37.640Z,61.77
2019-05-13T21:31:07.586Z,61.89
2019-05-13T21:33:37.516Z,61.76
2019-05-13T21:36:07.450Z,61.67
2019-05-13T21:38:37.393Z,61.95
2019-05-13T21:41:07.338Z,61.82
2019-05-13T21:43:37.266Z,61.67
2019-05-13T21:46:07.540Z,61.71
2019-05-13T21:48:37.759Z,61.47
2019-05-13T21:51:07.705Z,61.70
2019-05-13T21:53:37.641Z,62.07
2019-05-13T21:56:07.590Z,62.13
2019-05-13T22:01:16.859Z,62.55
2019-05-13T22:03:46.793Z,62.79
2019-05-13T22:06:16.750Z,62.61
2019-05-13T22:08:46.663Z,63.08
2019-05-13T22:11:16.593Z,62.80
2019-05-13T22:13:46.534Z,62.92
2019-05-13T22:16:16.453Z,63.22
2019-05-13T22:21:25.799Z,62.79
2019-05-13T22:23:56.005Z,62.80
2019-05-13T22:26:25.944Z,62.92
2019-05-13T22:28:56.228Z,62.84
2019-05-13T22:31:26.159Z,62.93
2019-05-13T22:33:56.087Z,62.82
2019-05-13T22:36:26.034Z,62.74
2019-05-13T22:38:55.980Z,62.89
2019-05-13T22:41:25.908Z,63.25
2019-05-13T22:43:58.816Z,63.56
2019-05-13T22:46:26.339Z,63.43
2019-05-13T22:48:56.281Z,63.21
2019-05-13T22:51:26.216Z,63.51
2019-05-13T22:53:56.158Z,63.74
2019-05-13T22:56:26.073Z,63.92
2019-05-13T22:58:56.326Z,63.45
2019-05-13T23:01:26.357Z,63.62
2019-05-13T23:03:56.304Z,63.23
2019-05-13T23:06:26.258Z,63.17
2019-05-13T23:11:35.825Z,63.60
2019-05-13T23:14:09.987Z,63.74
2019-05-13T23:16:36.063Z,63.77
2019-05-13T23:19:06.019Z,64.06
2019-05-13T23:21:36.305Z,64.23
2019-05-13T23:24:06.249Z,64.10
2019-05-13T23:26:36.167Z,64.73
2019-05-13T23:29:06.110Z,64.61
2019-05-13T23:31:36.044Z,64.78
2019-05-13T23:34:05.987Z,64.60
2019-05-13T23:36:36.012Z,64.83
2019-05-13T23:39:05.843Z,65.15
2019-05-13T23:41:35.768Z,65.37
2019-05-13T23:44:05.710Z,65.13
2019-05-13T23:46:35.639Z,65.20
2019-05-13T23:49:05.582Z,65.72
2019-05-13T23:51:35.503Z,65.80
2019-05-13T23:54:05.463Z,66.33
2019-05-13T23:56:35.390Z,66.91
2019-05-13T23:59:05.702Z,66.24
